88121 UUMU-XUWL
Flight info
| Callsign | 88121 |
|---|---|
| Flight time | N/A |
| Altitude | 25000 |
| Route | N0440F250 LINRU T614 OSPER |
| Aircraft | T154/M-VGD/A |
Departure
| Time | 2026-04-13 10:15 |
|---|---|
| Airport | Chkalovskiy Air Base (UUMU) |
Arrival
| Time | N/A |
|---|---|
| Airport | XUWL |
| Time | Latitude | Longitude | Altitude | Speed | Heading |
|---|---|---|---|---|---|
| 2026-04-13 10:15 | 55.67832 | 38.13172 | 12680 ft | 291 kts | 220° |
| 2026-04-13 10:15 | 55.66281 | 38.10778 | 13466 ft | 299 kts | 221° |
| 2026-04-13 10:16 | 55.64713 | 38.08332 | 14287 ft | 306 kts | 221° |
| 2026-04-13 10:16 | 55.63120 | 38.05842 | 15136 ft | 311 kts | 221° |
| 2026-04-13 10:16 | 55.61478 | 38.03272 | 15971 ft | 317 kts | 221° |
| 2026-04-13 10:16 | 55.59818 | 38.00688 | 16745 ft | 324 kts | 219° |
| 2026-04-13 10:17 | 55.57934 | 37.98500 | 17502 ft | 330 kts | 208° |
| 2026-04-13 10:17 | 55.55883 | 37.96589 | 18290 ft | 336 kts | 207° |
| 2026-04-13 10:17 | 55.53812 | 37.94709 | 19079 ft | 341 kts | 203° |
| 2026-04-13 10:17 | 55.51528 | 37.93611 | 19877 ft | 344 kts | 187° |
| 2026-04-13 10:18 | 55.49149 | 37.93241 | 20708 ft | 347 kts | 184° |
| 2026-04-13 10:18 | 55.46728 | 37.92885 | 21531 ft | 350 kts | 186° |
| 2026-04-13 10:18 | 55.44326 | 37.92424 | 22345 ft | 352 kts | 187° |
| 2026-04-13 10:18 | 55.41902 | 37.91882 | 23158 ft | 354 kts | 187° |
| 2026-04-13 10:19 | 55.39467 | 37.91298 | 23962 ft | 355 kts | 187° |
| 2026-04-13 10:19 | 55.37032 | 37.91232 | 24748 ft | 356 kts | 171° |
| 2026-04-13 10:19 | 55.34629 | 37.92311 | 25464 ft | 359 kts | 162° |
| 2026-04-13 10:19 | 55.32190 | 37.93688 | 25416 ft | 380 kts | 163° |
| 2026-04-13 10:20 | 55.29649 | 37.95031 | 25427 ft | 390 kts | 164° |
| 2026-04-13 10:20 | 55.26991 | 37.96318 | 25422 ft | 395 kts | 165° |
| 2026-04-13 10:20 | 55.24359 | 37.97526 | 25421 ft | 398 kts | 165° |
| 2026-04-13 10:20 | 55.21607 | 37.98339 | 25419 ft | 400 kts | 178° |
| 2026-04-13 10:21 | 55.18862 | 37.97804 | 25422 ft | 402 kts | 195° |
| 2026-04-13 10:21 | 55.16266 | 37.95993 | 25433 ft | 404 kts | 206° |
| 2026-04-13 10:21 | 55.13725 | 37.93834 | 25413 ft | 408 kts | 205° |
| 2026-04-13 10:21 | 55.11153 | 37.91851 | 25419 ft | 406 kts | 202° |
| 2026-04-13 10:22 | 55.08512 | 37.90223 | 25410 ft | 401 kts | 192° |
| 2026-04-13 10:22 | 55.05760 | 37.89581 | 25422 ft | 396 kts | 185° |
| 2026-04-13 10:22 | 55.03021 | 37.89195 | 25405 ft | 393 kts | 185° |
| 2026-04-13 10:22 | 55.00315 | 37.88834 | 25412 ft | 389 kts | 181° |
| 2026-04-13 10:23 | 54.97683 | 37.89379 | 25415 ft | 384 kts | 164° |
| 2026-04-13 10:23 | 54.95150 | 37.90933 | 25418 ft | 381 kts | 159° |
| 2026-04-13 10:23 | 54.92691 | 37.92586 | 25415 ft | 379 kts | 159° |
| 2026-04-13 10:23 | 54.90220 | 37.94131 | 25418 ft | 380 kts | 161° |
| 2026-04-13 10:24 | 54.87702 | 37.95593 | 25406 ft | 382 kts | 162° |
| 2026-04-13 10:24 | 54.85174 | 37.96997 | 25420 ft | 383 kts | 162° |
| 2026-04-13 10:24 | 54.82628 | 37.98381 | 25414 ft | 384 kts | 163° |
| 2026-04-13 10:24 | 54.80098 | 37.99717 | 25418 ft | 385 kts | 163° |
| 2026-04-13 10:25 | 54.77511 | 38.01071 | 25417 ft | 386 kts | 163° |
| 2026-04-13 10:25 | 54.74974 | 38.02399 | 25411 ft | 385 kts | 163° |
| 2026-04-13 10:25 | 54.72408 | 38.03744 | 25414 ft | 384 kts | 163° |
| 2026-04-13 10:25 | 54.69862 | 38.05078 | 25410 ft | 384 kts | 163° |
| 2026-04-13 10:26 | 54.67309 | 38.06416 | 25412 ft | 383 kts | 163° |
| 2026-04-13 10:26 | 54.64742 | 38.07782 | 25412 ft | 382 kts | 162° |
| 2026-04-13 10:26 | 54.62212 | 38.09137 | 25411 ft | 381 kts | 162° |